createdAt,value
2018-02-09T00:00:49.045Z,32.72
2018-02-09T00:03:16.569Z,30.98
2018-02-09T00:05:44.178Z,29.87
2018-02-09T00:08:11.701Z,32.15
2018-02-09T00:10:40.006Z,30.42
2018-02-09T00:13:07.538Z,28.00
2018-02-09T00:15:35.850Z,27.10
2018-02-09T00:18:03.381Z,27.15
2018-02-09T00:20:31.682Z,29.33
2018-02-09T00:22:59.203Z,30.10
2018-02-09T00:25:26.821Z,29.48
2018-02-09T00:27:54.345Z,30.02
2018-02-09T00:30:22.657Z,30.35
2018-02-09T00:32:50.178Z,26.42
2018-02-09T00:35:18.482Z,28.85
2018-02-09T00:37:46.002Z,28.92
2018-02-09T00:40:13.537Z,32.58
2018-02-09T00:42:41.053Z,34.78
2018-02-09T00:45:08.574Z,32.10
2018-02-09T00:47:36.109Z,29.42
2018-02-09T00:50:03.632Z,30.30
2018-02-09T00:52:31.178Z,27.27
2018-02-09T00:54:59.464Z,27.77
2018-02-09T00:57:27.770Z,28.05
2018-02-09T00:59:55.328Z,29.92
2018-02-09T01:02:22.865Z,27.75
2018-02-09T01:04:51.144Z,27.58
2018-02-09T01:07:18.690Z,27.92
2018-02-09T01:09:47.006Z,28.38
2018-02-09T01:12:14.578Z,28.30
2018-02-09T01:14:42.102Z,26.62
2018-02-09T01:17:10.417Z,29.83
2018-02-09T01:19:37.933Z,29.45
2018-02-09T01:22:06.245Z,28.85
2018-02-09T01:24:33.769Z,29.08
2018-02-09T01:27:02.085Z,33.60
2018-02-09T01:29:29.654Z,28.60
2018-02-09T01:31:57.310Z,25.85
2018-02-09T01:34:24.834Z,26.40
2018-02-09T01:36:53.136Z,28.00
2018-02-09T01:39:20.657Z,28.33
2018-02-09T01:41:48.192Z,27.08
2018-02-09T01:44:15.716Z,29.65
2018-02-09T01:46:43.266Z,27.50
2018-02-09T01:49:10.846Z,30.70
2018-02-09T01:51:38.385Z,30.20
2018-02-09T01:54:05.919Z,30.40
2018-02-09T01:56:33.461Z,30.02
2018-02-09T01:59:00.981Z,36.42
2018-02-09T02:01:28.522Z,32.80
2018-02-09T02:03:56.809Z,34.17
2018-02-09T02:06:24.345Z,32.85
2018-02-09T02:08:52.665Z,33.55
2018-02-09T02:11:20.210Z,30.30
2018-02-09T02:13:47.735Z,27.17
2018-02-09T02:16:15.278Z,32.60
2018-02-09T02:18:42.798Z,33.33
2018-02-09T02:21:10.337Z,34.00
2018-02-09T02:23:38.629Z,30.90
2018-02-09T02:26:06.171Z,31.77
2018-02-09T02:28:34.457Z,31.60
2018-02-09T02:31:01.993Z,28.98
2018-02-09T02:33:29.522Z,32.92
2018-02-09T02:35:57.057Z,32.33
2018-02-09T02:38:24.626Z,30.50
2018-02-09T02:40:52.165Z,29.45
2018-02-09T02:43:19.706Z,26.45
2018-02-09T02:45:47.988Z,28.08
2018-02-09T02:48:16.298Z,30.88
2018-02-09T02:50:43.818Z,27.35
2018-02-09T02:53:12.133Z,28.52
2018-02-09T02:55:39.659Z,26.83
2018-02-09T02:58:07.969Z,28.55
2018-02-09T03:00:35.489Z,28.10
2018-02-09T03:03:03.030Z,25.48
2018-02-09T03:05:30.561Z,28.15
2018-02-09T03:07:58.092Z,28.75
2018-02-09T03:10:26.383Z,28.87
2018-02-09T03:12:53.934Z,24.17
2018-02-09T03:15:22.222Z,31.62
2018-02-09T03:17:49.756Z,27.33
2018-02-09T03:20:18.066Z,28.90
2018-02-09T03:22:45.639Z,29.80
2018-02-09T03:25:13.179Z,25.30
2018-02-09T03:27:41.465Z,30.42
2018-02-09T03:30:09.005Z,27.92
2018-02-09T03:32:36.530Z,31.17
2018-02-09T03:35:04.067Z,35.53
2018-02-09T03:37:31.589Z,37.92
2018-02-09T03:39:59.897Z,34.90
2018-02-09T03:42:27.421Z,33.33
2018-02-09T03:44:54.961Z,32.97
2018-02-09T03:47:22.477Z,28.33
2018-02-09T03:49:50.019Z,28.40
2018-02-09T03:52:18.300Z,30.55
2018-02-09T03:54:46.611Z,34.97
2018-02-09T03:57:14.173Z,31.73
2018-02-09T03:59:41.712Z,33.05
2018-02-09T04:02:09.234Z,31.58
2018-02-09T04:04:36.757Z,34.55
2018-02-09T04:07:04.293Z,31.85
2018-02-09T04:09:31.818Z,31.35
2018-02-09T04:11:59.358Z,30.70
2018-02-09T04:14:26.881Z,35.40
2018-02-09T04:16:54.432Z,28.98
2018-02-09T04:19:21.958Z,30.20
2018-02-09T04:21:49.506Z,26.33
2018-02-09T04:24:17.020Z,34.13
2018-02-09T04:26:44.568Z,29.25
2018-02-09T04:29:12.858Z,31.05
2018-02-09T04:31:40.405Z,32.13
2018-02-09T04:34:08.693Z,36.63
2018-02-09T04:36:36.237Z,37.30
2018-02-09T04:39:04.555Z,35.90
2018-02-09T04:41:32.082Z,42.58
2018-02-09T04:44:00.398Z,39.97
2018-02-09T04:46:27.928Z,42.65
2018-02-09T04:48:55.471Z,40.28
2018-02-09T04:51:23.761Z,43.80
2018-02-09T04:53:52.070Z,40.45
2018-02-09T04:56:19.605Z,46.28
2018-02-09T04:58:47.148Z,42.28
2018-02-09T05:01:15.445Z,45.00
2018-02-09T05:03:42.993Z,41.17
2018-02-09T05:06:11.282Z,44.45
2018-02-09T05:08:38.825Z,44.25
2018-02-09T05:11:07.126Z,43.08
2018-02-09T05:13:34.674Z,41.97
2018-02-09T05:16:02.964Z,42.75
2018-02-09T05:18:30.513Z,44.47
2018-02-09T05:20:58.801Z,43.38
2018-02-09T05:23:26.377Z,44.47
2018-02-09T05:25:53.906Z,43.50
2018-02-09T05:28:22.189Z,43.20
2018-02-09T05:30:50.498Z,45.12
2018-02-09T05:33:18.022Z,49.15
2018-02-09T05:35:46.335Z,46.37
2018-02-09T05:38:13.866Z,46.30
2018-02-09T05:40:42.173Z,48.83
2018-02-09T05:43:09.710Z,45.40
2018-02-09T05:45:37.266Z,52.05
2018-02-09T05:48:05.561Z,50.95
2018-02-09T05:50:33.110Z,48.05
2018-02-09T05:53:00.633Z,47.38
2018-02-09T05:55:28.181Z,50.17
2018-02-09T05:57:55.707Z,47.55
2018-02-09T06:00:23.251Z,48.33
2018-02-09T06:02:50.773Z,47.13
2018-02-09T06:05:18.314Z,45.50
2018-02-09T06:07:45.839Z,48.50
2018-02-09T06:10:13.762Z,49.65
2018-02-09T06:12:44.541Z,50.58
2018-02-09T06:15:12.069Z,43.53
2018-02-09T06:17:39.614Z,45.53
2018-02-09T06:20:07.142Z,43.65
2018-02-09T06:22:34.685Z,47.03
2018-02-09T06:25:02.256Z,46.85
2018-02-09T06:27:29.801Z,44.92
2018-02-09T06:29:57.326Z,45.47
2018-02-09T06:32:24.878Z,48.08
2018-02-09T06:34:52.397Z,47.38
2018-02-09T06:37:19.938Z,46.83
2018-02-09T06:39:47.465Z,48.75
2018-02-09T06:42:15.005Z,38.97
2018-02-09T06:44:42.535Z,46.72
2018-02-09T06:47:10.078Z,45.90
2018-02-09T06:49:37.606Z,42.85
2018-02-09T06:52:05.198Z,47.47
2018-02-09T06:54:32.749Z,49.97
2018-02-09T06:57:01.042Z,47.28
2018-02-09T06:59:28.589Z,51.75
2018-02-09T07:01:56.122Z,44.30
2018-02-09T07:04:23.670Z,42.70
2018-02-09T07:06:51.195Z,48.05
2018-02-09T07:09:18.736Z,44.47
2018-02-09T07:14:20.305Z,46.00
2018-02-09T07:16:48.594Z,47.03
2018-02-09T07:19:16.139Z,46.47
2018-02-09T07:21:44.425Z,46.05
2018-02-09T07:24:11.973Z,47.28
2018-02-09T07:26:40.262Z,41.10
2018-02-09T07:29:08.571Z,42.35
2018-02-09T07:31:36.092Z,45.08
2018-02-09T07:34:04.410Z,46.42
2018-02-09T07:36:31.969Z,42.85
2018-02-09T07:38:59.514Z,49.20
2018-02-09T07:41:27.041Z,44.35
2018-02-09T07:43:54.575Z,44.78
2018-02-09T07:46:22.119Z,44.88
2018-02-09T07:48:49.643Z,45.35
2018-02-09T07:51:17.953Z,46.63
2018-02-09T07:53:45.477Z,45.90
2018-02-09T07:56:13.786Z,41.30
2018-02-09T07:58:41.305Z,48.17
2018-02-09T08:01:08.851Z,45.28
2018-02-09T08:03:36.374Z,41.25
2018-02-09T08:06:03.919Z,39.38
2018-02-09T08:08:31.441Z,35.08
2018-02-09T08:10:58.991Z,34.40
2018-02-09T08:13:26.522Z,48.25
2018-02-09T08:15:54.069Z,41.55
2018-02-09T08:18:21.593Z,40.63
2018-02-09T08:20:49.173Z,40.78
2018-02-09T08:23:17.465Z,38.83
2018-02-09T08:25:44.996Z,47.65
2018-02-09T08:28:12.610Z,50.83
2018-02-09T08:30:40.128Z,42.78
2018-02-09T08:33:08.436Z,41.80
2018-02-09T08:35:35.966Z,42.88
2018-02-09T08:38:04.277Z,46.70
2018-02-09T08:40:31.802Z,46.55
2018-02-09T08:42:59.354Z,49.30
2018-02-09T08:45:26.882Z,45.50
2018-02-09T08:47:54.432Z,46.13
2018-02-09T08:50:21.961Z,47.97
2018-02-09T08:52:50.274Z,46.90
2018-02-09T08:55:17.802Z,48.35
2018-02-09T08:57:46.105Z,45.55
2018-02-09T09:00:13.634Z,43.00
2018-02-09T09:02:41.957Z,43.97
2018-02-09T09:05:09.481Z,46.40
2018-02-09T09:07:37.794Z,44.20
2018-02-09T09:10:05.343Z,46.50
2018-02-09T09:12:32.869Z,48.03
2018-02-09T09:15:00.409Z,48.53
2018-02-09T09:17:27.930Z,43.58
2018-02-09T09:19:55.478Z,46.00
2018-02-09T09:22:23.766Z,44.22
2018-02-09T09:24:51.306Z,38.33
2018-02-09T09:27:19.602Z,49.45
2018-02-09T09:29:47.147Z,49.35
2018-02-09T09:32:15.434Z,48.15
2018-02-09T09:34:43.746Z,46.13
2018-02-09T09:37:11.273Z,48.58
2018-02-09T09:39:39.586Z,48.63
2018-02-09T09:42:07.110Z,51.80
2018-02-09T09:44:35.427Z,48.30
2018-02-09T09:47:02.951Z,51.47
2018-02-09T09:49:31.297Z,52.78
2018-02-09T09:51:58.825Z,50.92
2018-02-09T09:54:26.355Z,51.80
2018-02-09T09:56:54.665Z,49.75
2018-02-09T09:59:22.221Z,52.58
2018-02-09T10:01:49.775Z,55.53
2018-02-09T10:04:17.302Z,51.22
2018-02-09T10:06:45.614Z,54.47
2018-02-09T10:09:13.146Z,50.65
2018-02-09T10:11:41.454Z,51.72
2018-02-09T10:14:08.980Z,54.33
2018-02-09T10:16:36.527Z,51.90
2018-02-09T10:19:04.149Z,47.50
2018-02-09T10:21:31.687Z,50.95
2018-02-09T10:23:59.214Z,51.25
2018-02-09T10:26:26.757Z,54.63
2018-02-09T10:28:54.289Z,45.03
2018-02-09T10:31:21.842Z,43.80
2018-02-09T10:33:49.370Z,41.30
2018-02-09T10:36:16.912Z,38.63
2018-02-09T10:38:44.435Z,42.35
2018-02-09T10:41:11.995Z,43.53
2018-02-09T10:43:39.522Z,47.42
2018-02-09T10:46:07.878Z,52.20
2018-02-09T10:48:35.414Z,50.20
2018-02-09T10:51:02.936Z,48.80
2018-02-09T10:53:31.241Z,49.60
2018-02-09T10:55:58.765Z,45.92
2018-02-09T10:58:27.074Z,48.47
2018-02-09T11:00:58.577Z,50.70
2018-02-09T11:03:26.118Z,51.30
2018-02-09T11:05:53.666Z,48.05
2018-02-09T11:08:21.221Z,53.20
2018-02-09T11:10:49.569Z,55.17
2018-02-09T11:13:17.876Z,48.42
2018-02-09T11:15:45.409Z,48.67
2018-02-09T11:18:13.721Z,53.53
2018-02-09T11:20:41.252Z,45.50
2018-02-09T11:23:09.565Z,44.60
2018-02-09T11:25:37.093Z,52.97
2018-02-09T11:28:05.388Z,46.00
2018-02-09T11:30:32.941Z,38.25
2018-02-09T11:33:00.466Z,48.38
2018-02-09T11:35:28.006Z,47.53
2018-02-09T11:37:55.530Z,47.55
2018-02-09T11:40:23.078Z,40.15
2018-02-09T11:42:50.604Z,53.40
2018-02-09T11:45:18.150Z,56.35
2018-02-09T11:47:45.677Z,54.90
2018-02-09T11:50:13.222Z,56.25
2018-02-09T11:52:40.751Z,49.50
2018-02-09T11:55:08.293Z,44.20
2018-02-09T11:57:35.821Z,38.88
2018-02-09T12:00:03.362Z,43.35
2018-02-09T12:02:30.893Z,41.60
2018-02-09T12:04:58.459Z,39.83
2018-02-09T12:07:26.749Z,52.92
2018-02-09T12:09:55.062Z,53.47
2018-02-09T12:12:22.586Z,49.85
2018-02-09T12:14:50.897Z,53.70
2018-02-09T12:17:18.426Z,46.92
2018-02-09T12:19:46.738Z,54.22
2018-02-09T12:22:14.297Z,49.90
2018-02-09T12:24:41.840Z,49.53
2018-02-09T12:27:09.399Z,44.95
2018-02-09T12:29:36.921Z,39.80
2018-02-09T12:32:04.456Z,42.58
2018-02-09T12:34:31.977Z,45.50
2018-02-09T12:36:59.522Z,46.25
2018-02-09T12:39:27.817Z,44.63
2018-02-09T12:41:55.357Z,52.55
2018-02-09T12:44:23.651Z,54.63
2018-02-09T12:46:51.965Z,50.10
2018-02-09T12:49:19.490Z,46.85
2018-02-09T12:51:47.797Z,49.30
2018-02-09T12:54:15.314Z,41.90
2018-02-09T12:56:43.627Z,42.83
2018-02-09T12:59:11.141Z,39.25
2018-02-09T13:01:38.735Z,39.05
2018-02-09T13:04:06.313Z,45.90
2018-02-09T13:06:33.881Z,39.15
2018-02-09T13:09:01.422Z,48.33
2018-02-09T13:11:28.941Z,47.83
2018-02-09T13:13:56.565Z,46.10
2018-02-09T13:16:24.077Z,40.88
2018-02-09T13:18:52.386Z,50.35
2018-02-09T13:21:19.903Z,35.80
2018-02-09T13:23:59.384Z,43.92
2018-02-09T13:26:26.902Z,43.53
2018-02-09T13:28:59.447Z,46.05
2018-02-09T13:31:26.970Z,45.67
2018-02-09T13:33:55.277Z,44.05
2018-02-09T13:36:34.521Z,42.15
2018-02-09T13:39:02.065Z,43.90
2018-02-09T13:41:29.590Z,40.67
2018-02-09T13:43:57.901Z,44.45
2018-02-09T13:46:25.425Z,43.47
2018-02-09T13:48:53.712Z,40.85
2018-02-09T13:51:22.018Z,39.60
2018-02-09T13:53:49.545Z,37.90
2018-02-09T13:56:17.085Z,39.88
2018-02-09T13:58:44.606Z,42.30
2018-02-09T14:01:12.151Z,50.95
2018-02-09T14:03:39.678Z,40.35
2018-02-09T14:06:08.161Z,44.03
2018-02-09T14:08:35.695Z,47.28
2018-02-09T14:11:03.234Z,41.97
2018-02-09T14:13:30.761Z,43.75
2018-02-09T14:15:59.069Z,53.97
2018-02-09T14:18:26.592Z,40.40
2018-02-09T14:20:54.137Z,40.60
2018-02-09T14:23:22.425Z,43.22
2018-02-09T14:25:49.970Z,37.78
2018-02-09T14:28:17.498Z,33.65
2018-02-09T14:30:45.033Z,33.08
2018-02-09T14:33:12.561Z,32.78
2018-02-09T14:35:40.101Z,30.20
2018-02-09T14:38:08.238Z,30.23
2018-02-09T14:40:35.808Z,29.92
2018-02-09T14:43:03.349Z,28.52
2018-02-09T14:45:30.869Z,27.80
2018-02-09T14:47:58.410Z,26.52
2018-02-09T14:50:25.930Z,36.25
2018-02-09T14:52:53.470Z,29.60
2018-02-09T14:55:21.765Z,31.08
2018-02-09T14:57:50.077Z,27.37
2018-02-09T15:00:17.629Z,32.20
2018-02-09T15:02:45.166Z,30.15
2018-02-09T15:05:13.457Z,32.25
2018-02-09T15:07:40.997Z,30.90
2018-02-09T15:10:09.290Z,38.22
2018-02-09T15:12:37.597Z,38.67
2018-02-09T15:15:05.113Z,38.45
2018-02-09T15:17:32.717Z,43.42
2018-02-09T15:20:00.241Z,37.05
2018-02-09T15:22:27.793Z,50.50
2018-02-09T15:24:55.316Z,43.10
2018-02-09T15:27:22.880Z,39.60
2018-02-09T15:29:50.400Z,47.95
2018-02-09T15:32:18.681Z,43.87
2018-02-09T15:34:46.989Z,47.33
2018-02-09T15:37:14.523Z,53.55
2018-02-09T15:39:42.831Z,47.40
2018-02-09T15:42:10.358Z,51.63
2018-02-09T15:44:38.674Z,48.40
2018-02-09T15:47:06.193Z,52.20
2018-02-09T15:49:34.505Z,48.92
2018-02-09T15:52:02.070Z,48.85
2018-02-09T15:54:29.594Z,45.97
2018-02-09T15:56:57.886Z,50.83
2018-02-09T15:59:25.430Z,53.28
2018-02-09T16:01:53.718Z,52.78
2018-02-09T16:04:22.030Z,52.62
2018-02-09T16:06:49.558Z,52.28
2018-02-09T16:09:17.864Z,50.22
2018-02-09T16:11:45.386Z,52.13
2018-02-09T16:14:13.698Z,50.35
2018-02-09T16:16:41.229Z,52.22
2018-02-09T16:19:09.645Z,51.78
2018-02-09T16:21:37.179Z,48.50
2018-02-09T16:24:04.731Z,48.30
2018-02-09T16:26:33.021Z,50.30
2018-02-09T16:29:00.545Z,51.42
2018-02-09T16:31:28.090Z,46.95
2018-02-09T16:33:55.613Z,50.88
2018-02-09T16:36:23.154Z,49.45
2018-02-09T16:38:51.437Z,47.58
2018-02-09T16:41:19.030Z,48.03
2018-02-09T16:43:46.549Z,43.13
2018-02-09T16:46:14.857Z,48.38
2018-02-09T16:48:42.434Z,41.10
2018-02-09T16:51:09.970Z,41.15
2018-02-09T16:53:37.489Z,39.60
2018-02-09T16:56:05.032Z,45.65
2018-02-09T16:58:32.549Z,43.55
2018-02-09T17:01:00.094Z,39.30
2018-02-09T17:03:28.378Z,36.83
2018-02-09T17:05:56.671Z,42.28
2018-02-09T17:08:24.213Z,38.28
2018-02-09T17:10:52.492Z,33.65
2018-02-09T17:13:20.058Z,36.83
2018-02-09T17:15:48.346Z,38.28
2018-02-09T17:18:15.929Z,49.30
2018-02-09T17:20:43.460Z,49.40
2018-02-09T17:23:11.009Z,46.42
2018-02-09T17:25:39.299Z,38.58
2018-02-09T17:28:07.145Z,45.15
2018-02-09T17:30:35.436Z,42.60
2018-02-09T17:33:03.746Z,36.42
2018-02-09T17:35:31.269Z,36.78
2018-02-09T17:37:59.574Z,33.40
2018-02-09T17:40:27.097Z,33.67
2018-02-09T17:42:55.400Z,29.40
2018-02-09T17:45:22.927Z,40.40
2018-02-09T17:47:50.474Z,46.42
2018-02-09T17:50:18.011Z,46.13
2018-02-09T17:52:45.554Z,40.88
2018-02-09T17:55:13.076Z,40.45
2018-02-09T17:57:41.382Z,36.78
2018-02-09T18:00:08.910Z,34.92
2018-02-09T18:02:36.449Z,30.85
2018-02-09T18:05:03.970Z,36.85
2018-02-09T18:07:31.520Z,38.17
2018-02-09T18:09:59.045Z,37.85
2018-02-09T18:12:26.589Z,40.90
2018-02-09T18:14:54.110Z,37.65
2018-02-09T18:17:21.659Z,40.42
2018-02-09T18:19:49.182Z,40.35
2018-02-09T18:22:16.710Z,39.40
2018-02-09T18:24:44.255Z,37.72
2018-02-09T18:27:11.769Z,34.20
2018-02-09T18:29:40.085Z,38.60
2018-02-09T18:32:07.610Z,38.47
2018-02-09T18:34:35.153Z,35.22
2018-02-09T18:37:02.679Z,40.00
2018-02-09T18:39:30.226Z,37.00
2018-02-09T18:41:57.746Z,35.40
2018-02-09T18:44:25.285Z,39.30
2018-02-09T18:46:52.810Z,32.20
2018-02-09T18:49:20.353Z,28.33
2018-02-09T18:51:48.642Z,35.92
2018-02-09T18:54:16.191Z,36.42
2018-02-09T18:56:44.478Z,35.45
2018-02-09T18:59:12.034Z,36.45
2018-02-09T19:01:40.321Z,32.47
2018-02-09T19:04:08.621Z,31.95
2018-02-09T19:06:36.149Z,30.05
2018-02-09T19:09:04.459Z,32.22
2018-02-09T19:11:32.017Z,34.08
2018-02-09T19:14:00.303Z,30.73
2018-02-09T19:16:27.830Z,31.65
2018-02-09T19:18:56.139Z,28.92
2018-02-09T19:21:23.666Z,31.20
2018-02-09T19:23:51.979Z,30.88
2018-02-09T19:26:19.503Z,28.30
2018-02-09T19:28:47.809Z,28.77
2018-02-09T19:31:15.324Z,26.52
2018-02-09T19:33:42.870Z,33.65
2018-02-09T19:36:10.393Z,33.28
2018-02-09T19:38:37.937Z,34.63
2018-02-09T19:41:06.222Z,34.25
2018-02-09T19:43:33.765Z,34.95
2018-02-09T19:46:02.050Z,30.85
2018-02-09T19:48:30.353Z,30.45
2018-02-09T19:50:57.873Z,33.10
2018-02-09T19:53:26.206Z,30.60
2018-02-09T19:55:53.758Z,33.45
2018-02-09T19:58:21.273Z,33.38
2018-02-09T20:00:49.597Z,26.80
2018-02-09T20:03:17.118Z,28.83
2018-02-09T20:05:45.424Z,27.35
2018-02-09T20:08:12.940Z,24.50
2018-02-09T20:10:41.274Z,30.73
2018-02-09T20:13:08.794Z,27.42
2018-02-09T20:15:37.128Z,28.92
2018-02-09T20:18:04.641Z,28.50
2018-02-09T20:20:32.949Z,27.98
2018-02-09T20:23:00.473Z,26.50
2018-02-09T20:25:28.786Z,26.75
2018-02-09T20:27:56.314Z,25.60
2018-02-09T20:30:23.879Z,24.75
2018-02-09T20:32:52.169Z,30.10
2018-02-09T20:35:20.562Z,33.63
2018-02-09T20:37:48.086Z,31.83
2018-02-09T20:40:16.403Z,33.38
2018-02-09T20:42:43.926Z,31.40
2018-02-09T20:45:12.237Z,28.70
2018-02-09T20:47:39.757Z,25.25
2018-02-09T20:50:08.114Z,36.25
2018-02-09T20:52:35.643Z,29.73
2018-02-09T20:55:03.168Z,31.55
2018-02-09T20:57:31.474Z,32.45
2018-02-09T20:59:58.999Z,32.35
2018-02-09T21:02:27.316Z,28.25
2018-02-09T21:04:54.841Z,24.52
2018-02-09T21:07:23.146Z,26.40
2018-02-09T21:09:50.664Z,29.17
2018-02-09T21:12:18.269Z,22.52
2018-02-09T21:14:45.786Z,23.00
2018-02-09T21:17:13.327Z,31.65
2018-02-09T21:19:40.896Z,31.35
2018-02-09T21:22:08.441Z,33.92
2018-02-09T21:24:35.966Z,29.42
2018-02-09T21:27:03.517Z,30.95
2018-02-09T21:29:31.043Z,32.38
2018-02-09T21:31:58.562Z,35.63
2018-02-09T21:34:26.102Z,33.50
2018-02-09T21:36:53.629Z,38.03
2018-02-09T21:39:21.941Z,36.97
2018-02-09T21:41:49.466Z,37.38
2018-02-09T21:44:17.009Z,38.67
2018-02-09T21:46:44.525Z,35.55
2018-02-09T21:49:12.088Z,33.45
2018-02-09T21:51:39.632Z,37.47
2018-02-09T21:54:07.169Z,35.33
2018-02-09T21:56:34.690Z,35.35
2018-02-09T21:59:02.224Z,33.90
2018-02-09T22:01:29.749Z,34.03
2018-02-09T22:03:57.296Z,34.72
2018-02-09T22:06:24.834Z,35.30
2018-02-09T22:08:52.377Z,30.15
2018-02-09T22:11:19.902Z,31.20
2018-02-09T22:13:48.210Z,29.85
2018-02-09T22:16:15.916Z,31.65
2018-02-09T22:18:43.460Z,31.95
2018-02-09T22:21:10.981Z,34.28
2018-02-09T22:23:38.521Z,35.83
2018-02-09T22:26:06.811Z,37.35
2018-02-09T22:28:35.121Z,33.10
2018-02-09T22:31:02.641Z,30.80
2018-02-09T22:33:30.193Z,29.08
2018-02-09T22:35:57.798Z,28.48
2018-02-09T22:38:25.313Z,31.70
2018-02-09T22:40:52.852Z,29.58
2018-02-09T22:43:20.374Z,27.70
2018-02-09T22:45:47.909Z,28.38
2018-02-09T22:48:16.193Z,27.00
2018-02-09T22:50:44.498Z,29.75
2018-02-09T22:53:12.017Z,26.75
2018-02-09T22:55:39.562Z,26.10
2018-02-09T22:58:07.085Z,23.45
2018-02-09T23:00:34.621Z,24.20
2018-02-09T23:03:02.154Z,23.45
2018-02-09T23:05:29.697Z,29.15
2018-02-09T23:07:57.212Z,25.85
2018-02-09T23:10:24.754Z,25.45
2018-02-09T23:12:53.036Z,24.48
2018-02-09T23:15:21.346Z,24.63
2018-02-09T23:17:48.866Z,23.75
2018-02-09T23:20:17.164Z,30.17
2018-02-09T23:22:44.689Z,26.17
2018-02-09T23:25:12.236Z,29.15
2018-02-09T23:27:39.761Z,32.90
2018-02-09T23:30:07.285Z,30.65
2018-02-09T23:32:35.589Z,31.15
2018-02-09T23:35:03.906Z,31.48
2018-02-09T23:37:33.034Z,26.77
2018-02-09T23:40:01.340Z,28.83
2018-02-09T23:42:29.015Z,32.25
2018-02-09T23:44:56.588Z,31.10
2018-02-09T23:47:24.508Z,31.05
2018-02-09T23:49:52.277Z,34.83
2018-02-09T23:52:19.846Z,41.45
2018-02-09T23:54:48.374Z,30.65
2018-02-09T23:57:16.221Z,29.50
2018-02-09T23:59:43.789Z,33.10
